createdAt,value
2018-01-11T00:00:00.937Z,1.00
2018-01-11T00:02:29.129Z,1.10
2018-01-11T00:04:57.368Z,1.10
2018-01-11T00:07:26.258Z,1.10
2018-01-11T00:09:55.129Z,1.10
2018-01-11T00:12:23.325Z,1.00
2018-01-11T00:14:51.425Z,1.10
2018-01-11T00:17:19.609Z,1.10
2018-01-11T00:19:47.705Z,1.10
2018-01-11T00:22:16.594Z,1.00
2018-01-11T00:24:45.484Z,1.00
2018-01-11T00:27:14.410Z,1.00
2018-01-11T00:29:43.271Z,1.00
2018-01-11T00:32:12.165Z,1.00
2018-01-11T00:34:41.048Z,0.90
2018-01-11T00:37:09.968Z,0.90
2018-01-11T00:39:38.070Z,0.90
2018-01-11T00:42:06.561Z,0.90
2018-01-11T00:44:34.670Z,0.90
2018-01-11T00:47:03.549Z,0.90
2018-01-11T00:49:32.448Z,0.80
2018-01-11T00:52:00.575Z,0.80
2018-01-11T00:54:28.707Z,0.80
2018-01-11T00:56:56.829Z,0.80
2018-01-11T00:59:24.984Z,0.80
2018-01-11T01:01:53.096Z,0.80
2018-01-11T01:04:22.021Z,0.70
2018-01-11T01:06:50.911Z,0.70
2018-01-11T01:09:19.017Z,0.70
2018-01-11T01:11:47.258Z,0.70
2018-01-11T01:14:16.150Z,0.70
2018-01-11T01:16:44.259Z,0.60
2018-01-11T01:19:12.389Z,0.60
2018-01-11T01:21:40.565Z,0.60
2018-01-11T01:24:08.674Z,0.70
2018-01-11T01:26:36.909Z,0.60
2018-01-11T01:29:05.797Z,0.60
2018-01-11T01:31:33.971Z,0.60
2018-01-11T01:34:02.876Z,0.60
2018-01-11T01:36:31.033Z,0.60
2018-01-11T01:38:59.923Z,0.60
2018-01-11T01:41:28.814Z,0.60
2018-01-11T01:43:56.926Z,0.60
2018-01-11T01:46:25.064Z,0.60
2018-01-11T01:48:53.177Z,0.60
2018-01-11T01:51:21.405Z,0.60
2018-01-11T01:53:50.265Z,0.60
2018-01-11T01:56:19.162Z,0.60
2018-01-11T01:58:48.072Z,0.60
2018-01-11T02:01:16.965Z,0.60
2018-01-11T02:03:45.085Z,0.60
2018-01-11T02:06:13.217Z,0.60
2018-01-11T02:08:41.379Z,0.60
2018-01-11T02:11:10.268Z,0.60
2018-01-11T02:13:38.440Z,0.60
2018-01-11T02:16:07.378Z,0.60
2018-01-11T02:18:35.491Z,0.60
2018-01-11T02:21:03.626Z,0.60
2018-01-11T02:23:31.749Z,0.60
2018-01-11T02:25:59.865Z,0.60
2018-01-11T02:28:27.981Z,0.60
2018-01-11T02:30:56.123Z,0.60
2018-01-11T02:33:25.055Z,0.60
2018-01-11T02:35:53.174Z,0.60
2018-01-11T02:38:21.309Z,0.70
2018-01-11T02:40:49.454Z,0.70
2018-01-11T02:43:17.565Z,0.70
2018-01-11T02:45:45.689Z,0.70
2018-01-11T02:48:14.605Z,0.70
2018-01-11T02:50:42.708Z,0.60
2018-01-11T02:53:10.849Z,0.70
2018-01-11T02:55:38.960Z,0.70
2018-01-11T02:58:07.102Z,0.60
2018-01-11T03:00:35.223Z,0.70
2018-01-11T03:03:04.139Z,0.70
2018-01-11T03:05:32.274Z,0.70
2018-01-11T03:08:00.400Z,0.70
2018-01-11T03:10:28.530Z,0.70
2018-01-11T03:12:56.747Z,0.70
2018-01-11T03:15:25.637Z,0.70
2018-01-11T03:17:53.749Z,0.70
2018-01-11T03:20:21.980Z,0.70
2018-01-11T03:22:50.872Z,0.70
2018-01-11T03:25:18.991Z,0.70
2018-01-11T03:27:47.103Z,0.80
2018-01-11T03:30:15.382Z,0.70
2018-01-11T03:32:43.561Z,0.80
2018-01-11T03:35:12.425Z,0.80
2018-01-11T03:37:41.443Z,0.80
2018-01-11T03:40:10.326Z,0.80
2018-01-11T03:42:38.508Z,0.80
2018-01-11T03:45:07.404Z,0.80
2018-01-11T03:47:35.884Z,0.80
2018-01-11T03:50:03.980Z,0.80
2018-01-11T03:52:32.107Z,0.80
2018-01-11T03:55:00.227Z,0.80
2018-01-11T03:57:28.370Z,0.80
2018-01-11T03:59:56.543Z,0.80
2018-01-11T04:02:24.649Z,0.80
2018-01-11T04:04:52.779Z,0.80
2018-01-11T04:07:20.903Z,0.80
2018-01-11T04:09:49.033Z,0.80
2018-01-11T04:12:17.197Z,0.80
2018-01-11T04:14:46.087Z,0.80
2018-01-11T04:17:14.263Z,0.80
2018-01-11T04:19:43.130Z,0.80
2018-01-11T04:22:11.324Z,0.70
2018-01-11T04:24:40.212Z,0.80
2018-01-11T04:27:08.326Z,0.80
2018-01-11T04:29:36.471Z,0.80
2018-01-11T04:32:04.632Z,0.80
2018-01-11T04:34:33.483Z,0.80
2018-01-11T04:37:02.409Z,0.80
2018-01-11T04:39:30.513Z,0.70
2018-01-11T04:41:58.756Z,0.70
2018-01-11T04:44:27.650Z,0.80
2018-01-11T04:46:55.754Z,0.80
2018-01-11T04:49:24.169Z,0.80
2018-01-11T04:51:53.053Z,0.90
2018-01-11T04:54:21.936Z,0.90
2018-01-11T04:56:50.855Z,0.90
2018-01-11T04:59:18.971Z,0.90
2018-01-11T05:01:47.119Z,0.90
2018-01-11T05:04:15.282Z,0.90
2018-01-11T05:06:44.479Z,1.00
2018-01-11T05:09:13.376Z,1.00
2018-01-11T05:11:41.473Z,1.00
2018-01-11T05:14:09.613Z,1.10
2018-01-11T05:16:37.787Z,1.10
2018-01-11T05:19:06.677Z,1.20
2018-01-11T05:21:34.853Z,1.20
2018-01-11T05:24:02.974Z,1.20
2018-01-11T05:26:31.089Z,1.20
2018-01-11T05:28:59.206Z,1.30
2018-01-11T05:31:27.440Z,1.30
2018-01-11T05:33:56.301Z,1.40
2018-01-11T05:36:25.218Z,1.40
2018-01-11T05:38:53.319Z,1.40
2018-01-11T05:41:21.463Z,1.40
2018-01-11T05:43:49.574Z,1.40
2018-01-11T05:46:17.702Z,1.50
2018-01-11T05:48:45.882Z,1.50
2018-01-11T05:51:14.321Z,1.50
2018-01-11T05:53:43.219Z,1.50
2018-01-11T05:56:12.111Z,1.60
2018-01-11T05:58:40.249Z,1.50
2018-01-11T06:01:08.386Z,1.60
2018-01-11T06:03:36.494Z,1.60
2018-01-11T06:06:04.642Z,1.60
2018-01-11T06:08:32.761Z,1.60
2018-01-11T06:11:00.902Z,1.70
2018-01-11T06:13:29.044Z,1.70
2018-01-11T06:15:57.151Z,1.70
2018-01-11T06:18:26.041Z,1.70
2018-01-11T06:20:54.282Z,1.70
2018-01-11T06:23:22.454Z,1.80
2018-01-11T06:25:51.354Z,1.80
2018-01-11T06:28:19.463Z,1.80
2018-01-11T06:30:47.685Z,1.80
2018-01-11T06:33:16.558Z,1.80
2018-01-11T06:35:44.751Z,1.80
2018-01-11T06:38:13.619Z,1.80
2018-01-11T06:40:41.812Z,1.80
2018-01-11T06:43:10.676Z,1.90
2018-01-11T06:45:39.593Z,1.90
2018-01-11T06:48:08.489Z,1.90
2018-01-11T06:50:36.619Z,1.80
2018-01-11T06:53:05.503Z,1.90
2018-01-11T06:55:33.636Z,1.80
2018-01-11T06:58:01.762Z,1.90
2018-01-11T07:00:31.721Z,1.90
2018-01-11T07:02:59.813Z,1.90
2018-01-11T07:05:29.487Z,1.90
2018-01-11T07:07:58.380Z,1.90
2018-01-11T07:10:26.555Z,1.90
2018-01-11T07:12:55.441Z,1.90
2018-01-11T07:15:24.358Z,1.90
2018-01-11T07:17:52.511Z,1.90
2018-01-11T07:20:20.615Z,1.90
2018-01-11T07:22:48.755Z,1.90
2018-01-11T07:25:16.923Z,2.00
2018-01-11T07:27:45.793Z,2.00
2018-01-11T07:30:13.986Z,2.00
2018-01-11T07:32:42.876Z,2.00
2018-01-11T07:35:11.013Z,2.00
2018-01-11T07:37:40.240Z,2.10
2018-01-11T07:40:08.364Z,2.10
2018-01-11T07:42:36.504Z,2.10
2018-01-11T07:45:04.622Z,2.10
2018-01-11T07:47:33.665Z,2.20
2018-01-11T07:50:01.818Z,2.20
2018-01-11T07:52:30.694Z,2.30
2018-01-11T07:54:58.991Z,2.20
2018-01-11T07:57:27.962Z,2.30
2018-01-11T07:59:56.121Z,2.30
2018-01-11T08:02:26.271Z,2.30
2018-01-11T08:04:54.465Z,2.40
2018-01-11T08:07:23.756Z,2.40
2018-01-11T08:09:51.919Z,2.50
2018-01-11T08:12:20.106Z,2.50
2018-01-11T08:14:48.289Z,2.50
2018-01-11T08:17:16.453Z,2.50
2018-01-11T08:19:44.606Z,2.50
2018-01-11T08:22:13.525Z,2.60
2018-01-11T08:24:41.787Z,2.60
2018-01-11T08:27:09.960Z,2.60
2018-01-11T08:29:38.346Z,2.70
2018-01-11T08:32:06.486Z,2.70
2018-01-11T08:34:37.338Z,2.70
2018-01-11T08:37:05.513Z,2.70
2018-01-11T08:39:33.695Z,2.70
2018-01-11T08:42:01.853Z,2.70
2018-01-11T08:44:30.768Z,2.80
2018-01-11T08:46:59.032Z,2.70
2018-01-11T08:49:27.184Z,2.80
2018-01-11T08:51:56.196Z,2.80
2018-01-11T08:54:24.373Z,2.80
2018-01-11T08:56:52.522Z,2.90
2018-01-11T08:59:21.459Z,2.90
2018-01-11T09:01:49.709Z,2.90
2018-01-11T09:04:18.090Z,3.00
2018-01-11T09:06:46.464Z,3.00
2018-01-11T09:09:14.712Z,3.10
2018-01-11T09:11:43.739Z,3.20
2018-01-11T09:14:11.912Z,3.10
2018-01-11T09:16:40.087Z,3.20
2018-01-11T09:19:08.356Z,3.20
2018-01-11T09:21:36.517Z,3.20
2018-01-11T09:24:04.701Z,3.30
2018-01-11T09:26:32.871Z,3.30
2018-01-11T09:29:01.026Z,3.30
2018-01-11T09:31:30.041Z,3.40
2018-01-11T09:33:58.210Z,3.40
2018-01-11T09:36:26.381Z,3.40
2018-01-11T09:38:54.545Z,3.50
2018-01-11T09:41:22.699Z,3.50
2018-01-11T09:43:51.722Z,3.60
2018-01-11T09:46:19.900Z,3.60
2018-01-11T09:48:48.056Z,3.60
2018-01-11T09:51:16.984Z,3.80
2018-01-11T09:53:45.136Z,3.70
2018-01-11T09:56:13.295Z,3.80
2018-01-11T09:58:41.513Z,3.80
2018-01-11T10:01:09.752Z,3.90
2018-01-11T10:03:38.667Z,4.00
2018-01-11T10:06:06.843Z,4.00
2018-01-11T10:08:35.094Z,4.10
2018-01-11T10:11:03.265Z,4.10
2018-01-11T10:13:31.439Z,4.20
2018-01-11T10:15:59.603Z,4.20
2018-01-11T10:18:27.784Z,4.30
2018-01-11T10:20:56.084Z,4.30
2018-01-11T10:23:24.372Z,4.40
2018-01-11T10:25:52.541Z,4.40
2018-01-11T10:28:20.785Z,4.40
2018-01-11T10:33:59.348Z,4.40
2018-01-11T10:36:28.357Z,4.50
2018-01-11T10:38:57.372Z,4.50
2018-01-11T10:41:25.535Z,4.50
2018-01-11T10:43:53.696Z,4.60
2018-01-11T10:46:22.709Z,4.70
2018-01-11T10:48:50.857Z,4.60
2018-01-11T10:51:19.801Z,4.80
2018-01-11T10:53:47.955Z,4.80
2018-01-11T10:56:16.126Z,4.90
2018-01-11T10:58:44.303Z,5.00
2018-01-11T11:01:18.042Z,5.10
2018-01-11T11:03:47.285Z,5.40
2018-01-11T11:06:15.442Z,5.30
2018-01-11T11:08:44.375Z,5.60
2018-01-11T11:11:12.567Z,5.60
2018-01-11T11:13:40.802Z,5.60
2018-01-11T11:16:09.178Z,5.80
2018-01-11T11:18:37.348Z,5.80
2018-01-11T11:21:05.505Z,5.90
2018-01-11T11:23:34.520Z,6.00
2018-01-11T11:26:02.716Z,6.00
2018-01-11T11:28:30.883Z,6.10
2018-01-11T11:30:59.039Z,6.10
2018-01-11T11:33:27.211Z,6.20
2018-01-11T11:35:55.388Z,6.20
2018-01-11T11:38:23.572Z,6.20
2018-01-11T11:40:51.836Z,6.10
2018-01-11T11:43:20.008Z,6.10
2018-01-11T11:45:48.169Z,6.10
2018-01-11T11:48:16.328Z,6.10
2018-01-11T11:50:45.264Z,6.00
2018-01-11T11:53:13.520Z,5.90
2018-01-11T11:55:41.675Z,6.00
2018-01-11T11:58:09.965Z,5.90
2018-01-11T12:00:38.128Z,5.90
2018-01-11T12:03:06.300Z,5.90
2018-01-11T12:05:34.485Z,5.80
2018-01-11T12:08:02.634Z,5.80
2018-01-11T12:10:31.563Z,5.80
2018-01-11T12:12:59.733Z,5.80
2018-01-11T12:15:27.892Z,5.80
2018-01-11T12:17:56.066Z,5.80
2018-01-11T12:20:24.240Z,5.70
2018-01-11T12:22:52.401Z,5.70
2018-01-11T12:25:20.571Z,5.70
2018-01-11T12:27:48.740Z,5.70
2018-01-11T12:30:17.669Z,5.60
2018-01-11T12:32:45.824Z,5.60
2018-01-11T12:35:13.982Z,5.60
2018-01-11T12:37:42.153Z,5.60
2018-01-11T12:40:10.419Z,5.50
2018-01-11T12:42:39.346Z,5.50
2018-01-11T12:45:07.504Z,5.50
2018-01-11T12:47:35.665Z,5.50
2018-01-11T12:50:03.818Z,5.50
2018-01-11T12:52:32.745Z,5.50
2018-01-11T12:55:00.908Z,5.50
2018-01-11T12:57:29.079Z,5.50
2018-01-11T12:59:58.076Z,5.40
2018-01-11T13:02:26.196Z,5.40
2018-01-11T13:04:54.364Z,5.40
2018-01-11T13:07:22.521Z,5.40
2018-01-11T13:09:50.672Z,5.40
2018-01-11T13:12:18.945Z,5.40
2018-01-11T13:14:47.085Z,5.40
2018-01-11T13:17:16.035Z,5.30
2018-01-11T13:19:44.221Z,5.30
2018-01-11T13:22:12.401Z,5.30
2018-01-11T13:24:40.575Z,5.30
2018-01-11T13:27:08.746Z,5.30
2018-01-11T13:29:36.911Z,5.30
2018-01-11T13:32:05.149Z,5.30
2018-01-11T13:34:33.313Z,5.30
2018-01-11T13:37:01.466Z,5.30
2018-01-11T13:39:30.406Z,5.30
2018-01-11T13:41:58.569Z,5.30
2018-01-11T13:44:26.712Z,5.30
2018-01-11T13:46:55.793Z,5.30
2018-01-11T13:49:24.821Z,5.30
2018-01-11T13:51:53.092Z,5.30
2018-01-11T13:54:21.265Z,5.30
2018-01-11T13:56:49.501Z,5.30
2018-01-11T13:59:17.745Z,5.40
2018-01-11T14:01:45.898Z,5.40
2018-01-11T14:04:14.059Z,5.40
2018-01-11T14:06:42.228Z,5.40
2018-01-11T14:09:10.405Z,5.40
2018-01-11T14:11:38.682Z,5.40
2018-01-11T14:14:06.850Z,5.40
2018-01-11T14:16:35.130Z,5.40
2018-01-11T14:19:03.274Z,5.40
2018-01-11T14:21:32.199Z,5.40
2018-01-11T14:24:00.351Z,5.40
2018-01-11T14:26:29.293Z,5.40
2018-01-11T14:28:57.438Z,5.40
2018-01-11T14:31:25.613Z,5.40
2018-01-11T14:33:53.885Z,5.40
2018-01-11T14:36:22.062Z,5.40
2018-01-11T14:38:50.213Z,5.40
2018-01-11T14:41:19.148Z,5.40
2018-01-11T14:43:47.391Z,5.40
2018-01-11T14:46:15.567Z,5.40
2018-01-11T14:48:43.729Z,5.40
2018-01-11T14:51:11.883Z,5.40
2018-01-11T14:53:40.890Z,5.40
2018-01-11T14:56:10.101Z,5.40
2018-01-11T14:58:38.244Z,5.30
2018-01-11T15:01:06.401Z,5.30
2018-01-11T15:03:34.771Z,5.40
2018-01-11T15:06:02.945Z,5.30
2018-01-11T15:08:31.188Z,5.30
2018-01-11T15:11:00.165Z,5.30
2018-01-11T15:13:28.316Z,5.20
2018-01-11T15:15:57.253Z,5.20
2018-01-11T15:18:25.412Z,5.20
2018-01-11T15:20:53.593Z,5.20
2018-01-11T15:23:21.774Z,5.20
2018-01-11T15:25:49.932Z,5.10
2018-01-11T15:28:18.091Z,5.10
2018-01-11T15:30:46.280Z,5.10
2018-01-11T15:33:14.477Z,5.10
2018-01-11T15:35:42.633Z,5.10
2018-01-11T15:38:10.861Z,5.00
2018-01-11T15:40:39.786Z,5.00
2018-01-11T15:43:07.951Z,5.00
2018-01-11T15:45:36.129Z,5.00
2018-01-11T15:48:04.304Z,4.90
2018-01-11T15:50:32.567Z,5.00
2018-01-11T15:53:00.712Z,4.90
2018-01-11T15:55:28.904Z,4.90
2018-01-11T15:57:57.810Z,4.90
2018-01-11T16:00:26.092Z,4.90
2018-01-11T16:02:54.370Z,4.90
2018-01-11T16:05:23.455Z,4.80
2018-01-11T16:07:51.731Z,4.80
2018-01-11T16:10:19.880Z,4.80
2018-01-11T16:12:48.325Z,4.80
2018-01-11T16:15:16.476Z,4.70
2018-01-11T16:17:44.653Z,4.70
2018-01-11T16:20:12.826Z,4.70
2018-01-11T16:22:40.990Z,4.70
2018-01-11T16:25:09.244Z,4.70
2018-01-11T16:27:37.419Z,4.60
2018-01-11T16:30:05.594Z,4.60
2018-01-11T16:32:33.771Z,4.60
2018-01-11T16:35:02.038Z,4.60
2018-01-11T16:37:30.216Z,4.60
2018-01-11T16:39:58.374Z,4.60
2018-01-11T16:42:26.559Z,4.60
2018-01-11T16:44:54.716Z,4.60
2018-01-11T16:47:22.887Z,4.50
2018-01-11T16:49:51.774Z,4.40
2018-01-11T16:52:19.924Z,4.40
2018-01-11T16:54:48.095Z,4.40
2018-01-11T16:57:16.179Z,4.40
2018-01-11T16:59:44.317Z,4.40
2018-01-11T17:02:12.447Z,4.40
2018-01-11T17:04:40.559Z,4.40
2018-01-11T17:07:08.690Z,4.40
2018-01-11T17:09:36.832Z,4.30
2018-01-11T17:12:05.718Z,4.40
2018-01-11T17:14:34.613Z,4.40
2018-01-11T17:17:03.508Z,4.40
2018-01-11T17:19:31.637Z,4.30
2018-01-11T17:21:59.775Z,4.40
2018-01-11T17:24:28.646Z,4.30
2018-01-11T17:26:57.556Z,4.30
2018-01-11T17:29:25.660Z,4.30
2018-01-11T17:31:53.912Z,4.30
2018-01-11T17:34:22.008Z,4.30
2018-01-11T17:36:50.128Z,4.30
2018-01-11T17:39:18.274Z,4.30
2018-01-11T17:41:46.407Z,4.30
2018-01-11T17:44:14.556Z,4.30
2018-01-11T17:46:42.688Z,4.30
2018-01-11T17:49:11.625Z,4.30
2018-01-11T17:51:39.834Z,4.30
2018-01-11T17:54:08.075Z,4.30
2018-01-11T17:56:36.277Z,4.30
2018-01-11T17:59:04.403Z,4.30
2018-01-11T18:01:32.539Z,4.30
2018-01-11T18:04:00.668Z,4.30
2018-01-11T18:06:28.815Z,4.30
2018-01-11T18:08:57.710Z,4.30
2018-01-11T18:11:25.856Z,4.20
2018-01-11T18:13:54.761Z,4.30
2018-01-11T18:16:23.648Z,4.30
2018-01-11T18:18:52.650Z,4.30
2018-01-11T18:21:21.614Z,4.30
2018-01-11T18:23:49.757Z,4.30
2018-01-11T18:26:17.880Z,4.30
2018-01-11T18:28:46.809Z,4.40
2018-01-11T18:31:14.998Z,4.30
2018-01-11T18:33:43.901Z,4.30
2018-01-11T18:36:12.046Z,4.30
2018-01-11T18:38:40.801Z,4.30
2018-01-11T18:41:09.042Z,4.40
2018-01-11T18:43:37.177Z,4.30
2018-01-11T18:46:05.328Z,4.40
2018-01-11T18:48:34.541Z,4.30
2018-01-11T18:51:03.435Z,4.30
2018-01-11T18:53:31.557Z,4.30
2018-01-11T18:56:00.698Z,4.30
2018-01-11T18:58:29.627Z,4.30
2018-01-11T19:00:57.727Z,4.30
2018-01-11T19:03:26.858Z,4.30
2018-01-11T19:05:54.963Z,4.20
2018-01-11T19:08:23.198Z,4.30
2018-01-11T19:10:52.712Z,4.30
2018-01-11T19:13:21.188Z,4.30
2018-01-11T19:15:49.310Z,4.30
2018-01-11T19:18:17.450Z,4.30
2018-01-11T19:20:45.695Z,4.30
2018-01-11T19:23:13.842Z,4.30
2018-01-11T19:25:42.742Z,4.30
2018-01-11T19:28:11.641Z,4.30
2018-01-11T19:30:39.842Z,4.30
2018-01-11T19:33:08.011Z,4.30
2018-01-11T19:35:36.166Z,4.30
2018-01-11T19:38:04.330Z,4.30
2018-01-11T19:40:32.624Z,4.30
2018-01-11T19:43:00.815Z,4.30
2018-01-11T19:45:28.950Z,4.30
2018-01-11T19:47:57.141Z,4.30
2018-01-11T19:50:25.302Z,4.30
2018-01-11T19:52:54.180Z,4.30
2018-01-11T19:55:23.206Z,4.20
2018-01-11T19:57:51.346Z,4.20
2018-01-11T20:00:20.318Z,4.30
2018-01-11T20:02:48.465Z,4.20
2018-01-11T20:05:16.920Z,4.20
2018-01-11T20:07:45.060Z,4.30
2018-01-11T20:10:13.704Z,4.30
2018-01-11T20:12:43.123Z,4.20
2018-01-11T20:15:11.342Z,4.20
2018-01-11T20:17:39.513Z,4.20
2018-01-11T20:20:07.770Z,4.20
2018-01-11T20:22:40.659Z,4.20
2018-01-11T20:25:09.009Z,4.20
2018-01-11T20:27:37.199Z,4.10
2018-01-11T20:30:06.191Z,4.10
2018-01-11T20:32:34.867Z,4.10
2018-01-11T20:35:03.529Z,4.10
2018-01-11T20:37:31.768Z,4.10
2018-01-11T20:40:00.017Z,4.00
2018-01-11T20:42:28.171Z,4.00
2018-01-11T20:44:57.029Z,4.00
2018-01-11T20:47:25.654Z,4.00
2018-01-11T20:49:53.810Z,4.00
2018-01-11T20:52:22.302Z,4.00
2018-01-11T20:54:51.243Z,4.00
2018-01-11T20:57:19.630Z,4.00
2018-01-11T20:59:48.605Z,4.00
2018-01-11T21:02:18.179Z,3.90
2018-01-11T21:04:47.442Z,4.00
2018-01-11T21:07:15.886Z,4.00
2018-01-11T21:09:44.101Z,3.90
2018-01-11T21:12:12.365Z,3.90
2018-01-11T21:14:40.873Z,3.90
2018-01-11T21:17:09.022Z,3.90
2018-01-11T21:19:37.298Z,3.90
2018-01-11T21:22:05.830Z,3.90
2018-01-11T21:24:33.978Z,3.90
2018-01-11T21:27:02.801Z,3.80
2018-01-11T21:29:30.929Z,3.80
2018-01-11T21:31:59.337Z,3.80
2018-01-11T21:34:27.532Z,3.70
2018-01-11T21:36:56.482Z,3.70
2018-01-11T21:39:24.846Z,3.70
2018-01-11T21:41:52.989Z,3.70
2018-01-11T21:44:21.275Z,3.70
2018-01-11T21:46:49.414Z,3.70
2018-01-11T21:49:18.453Z,3.70
2018-01-11T21:51:46.665Z,3.60
2018-01-11T21:54:14.823Z,3.70
2018-01-11T21:56:42.993Z,3.70
2018-01-11T21:59:11.129Z,3.60
2018-01-11T22:01:39.268Z,3.60
2018-01-11T22:06:30.552Z,3.60
2018-01-11T22:08:58.757Z,3.60
2018-01-11T22:11:26.881Z,3.60
2018-01-11T22:13:55.462Z,3.60
2018-01-11T22:16:24.468Z,3.60
2018-01-11T22:18:52.661Z,3.60
2018-01-11T22:21:20.894Z,3.60
2018-01-11T22:23:49.818Z,3.60
2018-01-11T22:26:17.942Z,3.60
2018-01-11T22:28:46.333Z,3.60
2018-01-11T22:31:15.414Z,3.60
2018-01-11T22:33:43.718Z,3.50
2018-01-11T22:36:13.648Z,3.50
2018-01-11T22:38:41.932Z,3.50
2018-01-11T22:41:10.048Z,3.50
2018-01-11T22:43:38.615Z,3.50
2018-01-11T22:46:08.614Z,3.50
2018-01-11T22:48:36.871Z,3.50
2018-01-11T22:51:05.001Z,3.50
2018-01-11T22:53:33.886Z,3.40
2018-01-11T22:56:02.796Z,3.40
2018-01-11T22:58:31.695Z,3.40
2018-01-11T23:00:59.972Z,3.40
2018-01-11T23:03:28.859Z,3.40
2018-01-11T23:05:57.006Z,3.40
2018-01-11T23:08:25.289Z,3.40
2018-01-11T23:10:54.297Z,3.40
2018-01-11T23:13:23.176Z,3.40
2018-01-11T23:15:51.319Z,3.40
2018-01-11T23:18:19.581Z,3.40
2018-01-11T23:20:47.690Z,3.30
2018-01-11T23:23:15.846Z,3.30
2018-01-11T23:25:44.732Z,3.30
2018-01-11T23:28:13.619Z,3.30
2018-01-11T23:30:41.829Z,3.20
2018-01-11T23:33:10.684Z,3.20
2018-01-11T23:35:39.620Z,3.20
2018-01-11T23:38:07.724Z,3.20
2018-01-11T23:40:35.885Z,3.20
2018-01-11T23:43:04.011Z,3.10
2018-01-11T23:45:32.487Z,3.10
2018-01-11T23:48:00.861Z,3.10
2018-01-11T23:50:28.994Z,3.10
2018-01-11T23:52:57.146Z,3.10
2018-01-11T23:55:25.265Z,3.10
2018-01-11T23:57:54.191Z,3.10
